sensor_id;sensor_type;location;lat;lon;timestamp;P1;durP1;ratioP1;P2;durP2;ratioP2
18217;SDS011;9234;49.344;11.120;2022-12-24T00:01:34;4.53;;;1.42;;
18217;SDS011;9234;49.344;11.120;2022-12-24T00:04:03;5.40;;;1.65;;
18217;SDS011;9234;49.344;11.120;2022-12-24T00:06:32;6.25;;;1.20;;
18217;SDS011;9234;49.344;11.120;2022-12-24T00:09:00;3.60;;;1.02;;
18217;SDS011;9234;49.344;11.120;2022-12-24T00:11:28;4.75;;;1.60;;
18217;SDS011;9234;49.344;11.120;2022-12-24T00:13:56;2.08;;;0.93;;
18217;SDS011;9234;49.344;11.120;2022-12-24T00:16:26;3.13;;;1.05;;
18217;SDS011;9234;49.344;11.120;2022-12-24T00:18:54;2.33;;;1.27;;
18217;SDS011;9234;49.344;11.120;2022-12-24T00:21:23;4.40;;;1.00;;
18217;SDS011;9234;49.344;11.120;2022-12-24T00:23:51;5.03;;;1.40;;
18217;SDS011;9234;49.344;11.120;2022-12-24T00:26:19;3.72;;;1.50;;
18217;SDS011;9234;49.344;11.120;2022-12-24T00:28:47;3.70;;;1.17;;
18217;SDS011;9234;49.344;11.120;2022-12-24T00:31:17;8.48;;;1.42;;
18217;SDS011;9234;49.344;11.120;2022-12-24T00:33:47;3.40;;;1.10;;
18217;SDS011;9234;49.344;11.120;2022-12-24T00:36:16;4.80;;;1.27;;
18217;SDS011;9234;49.344;11.120;2022-12-24T00:38:46;5.60;;;1.73;;
18217;SDS011;9234;49.344;11.120;2022-12-24T00:41:14;7.30;;;1.52;;
18217;SDS011;9234;49.344;11.120;2022-12-24T00:43:55;5.50;;;1.45;;
18217;SDS011;9234;49.344;11.120;2022-12-24T00:46:26;5.20;;;1.00;;
18217;SDS011;9234;49.344;11.120;2022-12-24T00:48:58;4.00;;;1.38;;
18217;SDS011;9234;49.344;11.120;2022-12-24T00:51:27;4.75;;;1.25;;
18217;SDS011;9234;49.344;11.120;2022-12-24T00:53:56;4.88;;;1.38;;
18217;SDS011;9234;49.344;11.120;2022-12-24T00:56:24;4.35;;;1.27;;
18217;SDS011;9234;49.344;11.120;2022-12-24T00:58:53;4.65;;;0.93;;
18217;SDS011;9234;49.344;11.120;2022-12-24T01:01:22;4.25;;;1.50;;
18217;SDS011;9234;49.344;11.120;2022-12-24T01:03:51;4.43;;;1.30;;
18217;SDS011;9234;49.344;11.120;2022-12-24T01:06:41;3.28;;;1.25;;
18217;SDS011;9234;49.344;11.120;2022-12-24T01:09:09;5.68;;;1.70;;
18217;SDS011;9234;49.344;11.120;2022-12-24T01:11:37;5.53;;;1.45;;
18217;SDS011;9234;49.344;11.120;2022-12-24T01:14:05;4.72;;;1.40;;
18217;SDS011;9234;49.344;11.120;2022-12-24T01:16:33;5.93;;;1.63;;
18217;SDS011;9234;49.344;11.120;2022-12-24T01:19:02;4.93;;;1.50;;
18217;SDS011;9234;49.344;11.120;2022-12-24T01:21:30;10.07;;;1.60;;
18217;SDS011;9234;49.344;11.120;2022-12-24T01:24:00;4.22;;;1.60;;
18217;SDS011;9234;49.344;11.120;2022-12-24T01:26:28;11.63;;;2.10;;
18217;SDS011;9234;49.344;11.120;2022-12-24T01:28:56;5.72;;;1.50;;
18217;SDS011;9234;49.344;11.120;2022-12-24T01:31:25;6.30;;;1.40;;
18217;SDS011;9234;49.344;11.120;2022-12-24T01:33:53;9.02;;;1.63;;
18217;SDS011;9234;49.344;11.120;2022-12-24T01:36:21;4.72;;;1.40;;
18217;SDS011;9234;49.344;11.120;2022-12-24T01:38:49;3.70;;;1.23;;
18217;SDS011;9234;49.344;11.120;2022-12-24T01:41:20;7.13;;;1.55;;
18217;SDS011;9234;49.344;11.120;2022-12-24T01:44:18;5.10;;;1.42;;
18217;SDS011;9234;49.344;11.120;2022-12-24T01:47:02;6.63;;;2.25;;
18217;SDS011;9234;49.344;11.120;2022-12-24T01:49:35;7.07;;;1.90;;
18217;SDS011;9234;49.344;11.120;2022-12-24T01:52:09;4.47;;;1.55;;
18217;SDS011;9234;49.344;11.120;2022-12-24T01:54:43;6.63;;;1.88;;
18217;SDS011;9234;49.344;11.120;2022-12-24T01:57:18;5.00;;;1.00;;
18217;SDS011;9234;49.344;11.120;2022-12-24T01:59:52;8.25;;;2.33;;
18217;SDS011;9234;49.344;11.120;2022-12-24T02:02:25;6.18;;;1.70;;
18217;SDS011;9234;49.344;11.120;2022-12-24T02:04:55;8.07;;;1.63;;
18217;SDS011;9234;49.344;11.120;2022-12-24T02:07:29;5.43;;;1.50;;
18217;SDS011;9234;49.344;11.120;2022-12-24T02:09:59;6.85;;;1.15;;
18217;SDS011;9234;49.344;11.120;2022-12-24T02:12:30;5.82;;;1.70;;
18217;SDS011;9234;49.344;11.120;2022-12-24T02:15:03;3.33;;;1.20;;
18217;SDS011;9234;49.344;11.120;2022-12-24T02:17:34;7.47;;;1.65;;
18217;SDS011;9234;49.344;11.120;2022-12-24T02:20:19;5.25;;;1.73;;
18217;SDS011;9234;49.344;11.120;2022-12-24T02:23:21;6.82;;;1.52;;
18217;SDS011;9234;49.344;11.120;2022-12-24T02:26:47;6.00;;;1.85;;
18217;SDS011;9234;49.344;11.120;2022-12-24T02:29:46;5.95;;;1.38;;
18217;SDS011;9234;49.344;11.120;2022-12-24T02:32:45;5.15;;;1.30;;
18217;SDS011;9234;49.344;11.120;2022-12-24T02:35:36;7.97;;;1.55;;
18217;SDS011;9234;49.344;11.120;2022-12-24T02:38:15;7.05;;;1.50;;
18217;SDS011;9234;49.344;11.120;2022-12-24T02:40:52;5.68;;;1.27;;
18217;SDS011;9234;49.344;11.120;2022-12-24T02:43:27;4.60;;;1.33;;
18217;SDS011;9234;49.344;11.120;2022-12-24T02:46:04;3.80;;;1.80;;
18217;SDS011;9234;49.344;11.120;2022-12-24T02:48:38;6.72;;;1.63;;
18217;SDS011;9234;49.344;11.120;2022-12-24T02:51:11;5.68;;;1.42;;
18217;SDS011;9234;49.344;11.120;2022-12-24T02:53:39;6.10;;;1.77;;
18217;SDS011;9234;49.344;11.120;2022-12-24T02:56:11;7.70;;;1.50;;
18217;SDS011;9234;49.344;11.120;2022-12-24T02:59:01;6.25;;;1.42;;
18217;SDS011;9234;49.344;11.120;2022-12-24T03:01:52;9.18;;;1.65;;
18217;SDS011;9234;49.344;11.120;2022-12-24T03:04:37;7.28;;;1.60;;
18217;SDS011;9234;49.344;11.120;2022-12-24T03:07:17;3.72;;;1.30;;
18217;SDS011;9234;49.344;11.120;2022-12-24T03:09:59;5.07;;;1.58;;
18217;SDS011;9234;49.344;11.120;2022-12-24T03:12:38;5.78;;;1.52;;
18217;SDS011;9234;49.344;11.120;2022-12-24T03:15:12;6.05;;;1.88;;
18217;SDS011;9234;49.344;11.120;2022-12-24T03:17:46;7.88;;;1.77;;
18217;SDS011;9234;49.344;11.120;2022-12-24T03:20:20;11.80;;;2.22;;
18217;SDS011;9234;49.344;11.120;2022-12-24T03:22:56;8.50;;;1.75;;
18217;SDS011;9234;49.344;11.120;2022-12-24T03:25:24;6.10;;;1.50;;
18217;SDS011;9234;49.344;11.120;2022-12-24T03:27:54;5.25;;;1.42;;
18217;SDS011;9234;49.344;11.120;2022-12-24T03:30:24;7.88;;;1.98;;
18217;SDS011;9234;49.344;11.120;2022-12-24T03:32:54;4.70;;;1.83;;
18217;SDS011;9234;49.344;11.120;2022-12-24T03:35:23;6.57;;;1.30;;
18217;SDS011;9234;49.344;11.120;2022-12-24T03:37:51;7.55;;;1.70;;
18217;SDS011;9234;49.344;11.120;2022-12-24T03:40:20;7.97;;;1.77;;
18217;SDS011;9234;49.344;11.120;2022-12-24T03:42:48;5.97;;;1.27;;
18217;SDS011;9234;49.344;11.120;2022-12-24T03:45:16;7.95;;;1.70;;
18217;SDS011;9234;49.344;11.120;2022-12-24T03:47:45;7.78;;;1.77;;
18217;SDS011;9234;49.344;11.120;2022-12-24T03:50:14;6.38;;;1.40;;
18217;SDS011;9234;49.344;11.120;2022-12-24T03:52:43;7.57;;;1.83;;
18217;SDS011;9234;49.344;11.120;2022-12-24T03:55:11;6.65;;;1.40;;
18217;SDS011;9234;49.344;11.120;2022-12-24T03:57:39;4.95;;;1.23;;
18217;SDS011;9234;49.344;11.120;2022-12-24T04:00:08;3.08;;;1.33;;
18217;SDS011;9234;49.344;11.120;2022-12-24T04:02:38;4.55;;;1.17;;
18217;SDS011;9234;49.344;11.120;2022-12-24T04:05:07;11.48;;;3.17;;
18217;SDS011;9234;49.344;11.120;2022-12-24T04:07:42;5.55;;;1.40;;
18217;SDS011;9234;49.344;11.120;2022-12-24T04:10:13;6.57;;;1.13;;
18217;SDS011;9234;49.344;11.120;2022-12-24T04:12:42;4.85;;;1.60;;
18217;SDS011;9234;49.344;11.120;2022-12-24T04:15:10;6.07;;;1.58;;
18217;SDS011;9234;49.344;11.120;2022-12-24T04:17:38;5.63;;;1.60;;
18217;SDS011;9234;49.344;11.120;2022-12-24T04:20:07;7.07;;;1.60;;
18217;SDS011;9234;49.344;11.120;2022-12-24T04:22:36;4.68;;;1.30;;
18217;SDS011;9234;49.344;11.120;2022-12-24T04:25:06;5.20;;;2.15;;
18217;SDS011;9234;49.344;11.120;2022-12-24T04:27:36;6.38;;;1.30;;
18217;SDS011;9234;49.344;11.120;2022-12-24T04:30:04;5.07;;;1.27;;
18217;SDS011;9234;49.344;11.120;2022-12-24T04:32:34;7.78;;;1.63;;
18217;SDS011;9234;49.344;11.120;2022-12-24T04:35:03;7.35;;;1.50;;
18217;SDS011;9234;49.344;11.120;2022-12-24T04:37:32;5.10;;;2.22;;
18217;SDS011;9234;49.344;11.120;2022-12-24T04:40:00;11.35;;;1.73;;
18217;SDS011;9234;49.344;11.120;2022-12-24T04:42:30;8.27;;;1.42;;
18217;SDS011;9234;49.344;11.120;2022-12-24T04:44:58;9.45;;;1.73;;
18217;SDS011;9234;49.344;11.120;2022-12-24T04:47:27;7.78;;;1.67;;
18217;SDS011;9234;49.344;11.120;2022-12-24T04:49:55;4.82;;;1.50;;
18217;SDS011;9234;49.344;11.120;2022-12-24T04:52:23;6.40;;;1.55;;
18217;SDS011;9234;49.344;11.120;2022-12-24T04:54:51;10.50;;;2.47;;
18217;SDS011;9234;49.344;11.120;2022-12-24T04:57:19;6.93;;;1.70;;
18217;SDS011;9234;49.344;11.120;2022-12-24T04:59:49;8.20;;;1.50;;
18217;SDS011;9234;49.344;11.120;2022-12-24T05:02:17;6.40;;;1.77;;
18217;SDS011;9234;49.344;11.120;2022-12-24T05:04:45;6.35;;;1.67;;
18217;SDS011;9234;49.344;11.120;2022-12-24T05:07:13;7.18;;;1.33;;
18217;SDS011;9234;49.344;11.120;2022-12-24T05:09:41;6.32;;;1.80;;
18217;SDS011;9234;49.344;11.120;2022-12-24T05:12:10;9.57;;;1.60;;
18217;SDS011;9234;49.344;11.120;2022-12-24T05:14:38;9.10;;;2.08;;
18217;SDS011;9234;49.344;11.120;2022-12-24T05:17:07;4.18;;;1.88;;
18217;SDS011;9234;49.344;11.120;2022-12-24T05:19:36;6.43;;;2.50;;
18217;SDS011;9234;49.344;11.120;2022-12-24T05:22:04;8.10;;;2.20;;
18217;SDS011;9234;49.344;11.120;2022-12-24T05:24:49;8.40;;;2.28;;
18217;SDS011;9234;49.344;11.120;2022-12-24T05:27:35;6.35;;;1.52;;
18217;SDS011;9234;49.344;11.120;2022-12-24T05:30:03;7.68;;;2.05;;
18217;SDS011;9234;49.344;11.120;2022-12-24T05:32:35;3.72;;;1.77;;
18217;SDS011;9234;49.344;11.120;2022-12-24T05:35:04;8.27;;;1.80;;
18217;SDS011;9234;49.344;11.120;2022-12-24T05:37:32;7.85;;;2.08;;
18217;SDS011;9234;49.344;11.120;2022-12-24T05:40:00;9.10;;;3.30;;
18217;SDS011;9234;49.344;11.120;2022-12-24T05:42:29;7.80;;;2.47;;
18217;SDS011;9234;49.344;11.120;2022-12-24T05:44:57;8.50;;;2.13;;
18217;SDS011;9234;49.344;11.120;2022-12-24T05:47:25;9.73;;;2.33;;
18217;SDS011;9234;49.344;11.120;2022-12-24T05:49:54;7.40;;;3.40;;
18217;SDS011;9234;49.344;11.120;2022-12-24T05:52:22;13.68;;;6.97;;
18217;SDS011;9234;49.344;11.120;2022-12-24T05:54:51;11.93;;;5.82;;
18217;SDS011;9234;49.344;11.120;2022-12-24T05:57:19;8.20;;;4.28;;
18217;SDS011;9234;49.344;11.120;2022-12-24T05:59:47;10.20;;;3.17;;
18217;SDS011;9234;49.344;11.120;2022-12-24T06:02:15;8.45;;;3.03;;
18217;SDS011;9234;49.344;11.120;2022-12-24T06:04:43;5.72;;;2.33;;
18217;SDS011;9234;49.344;11.120;2022-12-24T06:07:13;9.48;;;2.05;;
18217;SDS011;9234;49.344;11.120;2022-12-24T06:09:41;5.65;;;1.90;;
18217;SDS011;9234;49.344;11.120;2022-12-24T06:12:09;7.82;;;2.47;;
18217;SDS011;9234;49.344;11.120;2022-12-24T06:14:37;7.60;;;1.98;;
18217;SDS011;9234;49.344;11.120;2022-12-24T06:17:05;9.60;;;1.60;;
18217;SDS011;9234;49.344;11.120;2022-12-24T06:19:33;10.00;;;2.35;;
18217;SDS011;9234;49.344;11.120;2022-12-24T06:22:02;8.07;;;2.75;;
18217;SDS011;9234;49.344;11.120;2022-12-24T06:24:31;6.50;;;2.03;;
18217;SDS011;9234;49.344;11.120;2022-12-24T06:26:59;5.00;;;1.95;;
18217;SDS011;9234;49.344;11.120;2022-12-24T06:29:27;8.55;;;2.40;;
18217;SDS011;9234;49.344;11.120;2022-12-24T06:31:56;10.98;;;1.88;;
18217;SDS011;9234;49.344;11.120;2022-12-24T06:34:24;11.73;;;2.15;;
18217;SDS011;9234;49.344;11.120;2022-12-24T06:36:52;6.47;;;1.98;;
18217;SDS011;9234;49.344;11.120;2022-12-24T06:39:20;8.77;;;1.83;;
18217;SDS011;9234;49.344;11.120;2022-12-24T06:41:50;6.55;;;1.70;;
18217;SDS011;9234;49.344;11.120;2022-12-24T06:44:18;2.95;;;1.73;;
18217;SDS011;9234;49.344;11.120;2022-12-24T06:46:46;8.60;;;2.17;;
18217;SDS011;9234;49.344;11.120;2022-12-24T06:49:14;9.98;;;2.40;;
18217;SDS011;9234;49.344;11.120;2022-12-24T06:51:42;6.28;;;1.58;;
18217;SDS011;9234;49.344;11.120;2022-12-24T06:54:11;7.18;;;2.30;;
18217;SDS011;9234;49.344;11.120;2022-12-24T06:56:39;8.50;;;1.95;;
18217;SDS011;9234;49.344;11.120;2022-12-24T06:59:08;6.47;;;1.70;;
18217;SDS011;9234;49.344;11.120;2022-12-24T07:01:36;7.25;;;1.90;;
18217;SDS011;9234;49.344;11.120;2022-12-24T07:04:05;10.57;;;2.53;;
18217;SDS011;9234;49.344;11.120;2022-12-24T07:06:33;11.63;;;2.10;;
18217;SDS011;9234;49.344;11.120;2022-12-24T07:09:01;10.50;;;2.95;;
18217;SDS011;9234;49.344;11.120;2022-12-24T07:11:29;8.52;;;1.95;;
18217;SDS011;9234;49.344;11.120;2022-12-24T07:13:58;9.40;;;2.63;;
18217;SDS011;9234;49.344;11.120;2022-12-24T07:16:27;10.75;;;2.83;;
18217;SDS011;9234;49.344;11.120;2022-12-24T07:18:55;8.82;;;3.05;;
18217;SDS011;9234;49.344;11.120;2022-12-24T07:21:24;11.10;;;3.22;;
18217;SDS011;9234;49.344;11.120;2022-12-24T07:23:52;7.68;;;2.80;;
18217;SDS011;9234;49.344;11.120;2022-12-24T07:26:20;9.65;;;2.95;;
18217;SDS011;9234;49.344;11.120;2022-12-24T07:28:48;5.47;;;2.47;;
18217;SDS011;9234;49.344;11.120;2022-12-24T07:31:16;11.60;;;2.58;;
18217;SDS011;9234;49.344;11.120;2022-12-24T07:33:46;8.43;;;1.67;;
18217;SDS011;9234;49.344;11.120;2022-12-24T07:36:14;8.48;;;2.20;;
18217;SDS011;9234;49.344;11.120;2022-12-24T07:38:47;10.52;;;2.92;;
18217;SDS011;9234;49.344;11.120;2022-12-24T07:41:16;8.85;;;2.25;;
18217;SDS011;9234;49.344;11.120;2022-12-24T07:43:44;11.45;;;3.17;;
18217;SDS011;9234;49.344;11.120;2022-12-24T07:46:12;10.90;;;3.13;;
18217;SDS011;9234;49.344;11.120;2022-12-24T07:48:41;10.35;;;3.40;;
18217;SDS011;9234;49.344;11.120;2022-12-24T07:51:10;11.45;;;3.03;;
18217;SDS011;9234;49.344;11.120;2022-12-24T07:53:39;12.05;;;2.45;;
18217;SDS011;9234;49.344;11.120;2022-12-24T07:56:12;10.65;;;2.20;;
18217;SDS011;9234;49.344;11.120;2022-12-24T07:58:41;13.02;;;3.40;;
18217;SDS011;9234;49.344;11.120;2022-12-24T08:01:10;11.85;;;3.50;;
18217;SDS011;9234;49.344;11.120;2022-12-24T08:03:38;7.88;;;2.72;;
18217;SDS011;9234;49.344;11.120;2022-12-24T08:06:07;12.55;;;3.05;;
18217;SDS011;9234;49.344;11.120;2022-12-24T08:08:36;13.27;;;3.58;;
18217;SDS011;9234;49.344;11.120;2022-12-24T08:11:05;9.02;;;2.47;;
18217;SDS011;9234;49.344;11.120;2022-12-24T08:13:34;12.43;;;3.83;;
18217;SDS011;9234;49.344;11.120;2022-12-24T08:16:02;13.60;;;4.55;;
18217;SDS011;9234;49.344;11.120;2022-12-24T08:18:31;12.38;;;4.20;;
18217;SDS011;9234;49.344;11.120;2022-12-24T08:21:00;14.60;;;4.90;;
18217;SDS011;9234;49.344;11.120;2022-12-24T08:23:28;12.93;;;4.55;;
18217;SDS011;9234;49.344;11.120;2022-12-24T08:25:57;14.60;;;3.55;;
18217;SDS011;9234;49.344;11.120;2022-12-24T08:28:25;13.15;;;4.15;;
18217;SDS011;9234;49.344;11.120;2022-12-24T08:30:54;10.02;;;3.45;;
18217;SDS011;9234;49.344;11.120;2022-12-24T08:33:22;12.80;;;3.72;;
18217;SDS011;9234;49.344;11.120;2022-12-24T08:35:51;11.15;;;2.90;;
18217;SDS011;9234;49.344;11.120;2022-12-24T08:38:21;7.55;;;3.50;;
18217;SDS011;9234;49.344;11.120;2022-12-24T08:40:51;11.90;;;3.55;;
18217;SDS011;9234;49.344;11.120;2022-12-24T08:43:21;10.00;;;2.35;;
18217;SDS011;9234;49.344;11.120;2022-12-24T08:45:51;9.93;;;2.10;;
18217;SDS011;9234;49.344;11.120;2022-12-24T08:48:20;9.80;;;2.95;;
18217;SDS011;9234;49.344;11.120;2022-12-24T08:50:48;8.20;;;3.20;;
18217;SDS011;9234;49.344;11.120;2022-12-24T08:53:16;10.02;;;3.20;;
18217;SDS011;9234;49.344;11.120;2022-12-24T08:55:44;9.85;;;4.05;;
18217;SDS011;9234;49.344;11.120;2022-12-24T08:58:22;10.10;;;3.95;;
18217;SDS011;9234;49.344;11.120;2022-12-24T09:00:50;9.40;;;4.43;;
18217;SDS011;9234;49.344;11.120;2022-12-24T09:03:18;14.65;;;4.35;;
18217;SDS011;9234;49.344;11.120;2022-12-24T09:05:53;10.73;;;3.60;;
18217;SDS011;9234;49.344;11.120;2022-12-24T09:08:21;15.00;;;3.55;;
18217;SDS011;9234;49.344;11.120;2022-12-24T09:10:50;11.15;;;2.92;;
18217;SDS011;9234;49.344;11.120;2022-12-24T09:13:18;10.45;;;3.28;;
18217;SDS011;9234;49.344;11.120;2022-12-24T09:15:52;15.68;;;3.38;;
18217;SDS011;9234;49.344;11.120;2022-12-24T09:18:22;13.20;;;4.38;;
18217;SDS011;9234;49.344;11.120;2022-12-24T09:20:50;14.52;;;3.53;;
18217;SDS011;9234;49.344;11.120;2022-12-24T09:23:24;11.60;;;3.67;;
18217;SDS011;9234;49.344;11.120;2022-12-24T09:25:52;14.27;;;3.95;;
18217;SDS011;9234;49.344;11.120;2022-12-24T09:28:21;9.73;;;2.33;;
18217;SDS011;9234;49.344;11.120;2022-12-24T09:30:55;12.70;;;3.35;;
18217;SDS011;9234;49.344;11.120;2022-12-24T09:33:26;15.25;;;3.22;;
18217;SDS011;9234;49.344;11.120;2022-12-24T09:35:56;10.60;;;2.88;;
18217;SDS011;9234;49.344;11.120;2022-12-24T09:38:25;12.00;;;3.75;;
18217;SDS011;9234;49.344;11.120;2022-12-24T09:40:53;10.60;;;2.80;;
18217;SDS011;9234;49.344;11.120;2022-12-24T09:43:28;12.15;;;3.30;;
18217;SDS011;9234;49.344;11.120;2022-12-24T09:46:04;14.57;;;3.85;;
18217;SDS011;9234;49.344;11.120;2022-12-24T09:48:48;8.60;;;2.90;;
18217;SDS011;9234;49.344;11.120;2022-12-24T09:51:23;13.13;;;3.10;;
18217;SDS011;9234;49.344;11.120;2022-12-24T09:54:01;13.13;;;3.03;;
18217;SDS011;9234;49.344;11.120;2022-12-24T09:56:38;10.68;;;4.07;;
18217;SDS011;9234;49.344;11.120;2022-12-24T09:59:10;18.10;;;3.67;;
18217;SDS011;9234;49.344;11.120;2022-12-24T10:01:45;12.82;;;3.50;;
18217;SDS011;9234;49.344;11.120;2022-12-24T10:04:16;9.35;;;3.20;;
18217;SDS011;9234;49.344;11.120;2022-12-24T10:06:49;10.25;;;2.60;;
18217;SDS011;9234;49.344;11.120;2022-12-24T10:09:27;12.93;;;3.55;;
18217;SDS011;9234;49.344;11.120;2022-12-24T10:12:06;9.43;;;3.28;;
18217;SDS011;9234;49.344;11.120;2022-12-24T10:14:46;8.95;;;2.78;;
18217;SDS011;9234;49.344;11.120;2022-12-24T10:17:33;14.93;;;2.80;;
18217;SDS011;9234;49.344;11.120;2022-12-24T10:20:35;15.32;;;3.00;;
18217;SDS011;9234;49.344;11.120;2022-12-24T10:23:15;10.35;;;2.67;;
18217;SDS011;9234;49.344;11.120;2022-12-24T10:25:52;12.55;;;2.67;;
18217;SDS011;9234;49.344;11.120;2022-12-24T10:28:33;12.25;;;3.50;;
18217;SDS011;9234;49.344;11.120;2022-12-24T10:31:09;13.25;;;4.07;;
18217;SDS011;9234;49.344;11.120;2022-12-24T10:33:41;14.23;;;3.17;;
18217;SDS011;9234;49.344;11.120;2022-12-24T10:36:14;10.57;;;4.05;;
18217;SDS011;9234;49.344;11.120;2022-12-24T10:38:45;14.18;;;2.95;;
18217;SDS011;9234;49.344;11.120;2022-12-24T10:41:13;6.75;;;3.08;;
18217;SDS011;9234;49.344;11.120;2022-12-24T10:43:43;11.45;;;3.38;;
18217;SDS011;9234;49.344;11.120;2022-12-24T10:46:15;17.85;;;3.30;;
18217;SDS011;9234;49.344;11.120;2022-12-24T10:48:50;14.25;;;2.47;;
18217;SDS011;9234;49.344;11.120;2022-12-24T10:51:34;12.90;;;3.50;;
18217;SDS011;9234;49.344;11.120;2022-12-24T10:54:10;14.63;;;3.45;;
18217;SDS011;9234;49.344;11.120;2022-12-24T10:56:54;14.30;;;3.47;;
18217;SDS011;9234;49.344;11.120;2022-12-24T10:59:26;16.63;;;4.03;;
18217;SDS011;9234;49.344;11.120;2022-12-24T11:01:57;9.52;;;2.97;;
18217;SDS011;9234;49.344;11.120;2022-12-24T11:04:29;12.20;;;3.33;;
18217;SDS011;9234;49.344;11.120;2022-12-24T11:06:59;9.80;;;2.70;;
18217;SDS011;9234;49.344;11.120;2022-12-24T11:09:30;13.48;;;4.10;;
18217;SDS011;9234;49.344;11.120;2022-12-24T11:12:02;9.57;;;3.53;;
18217;SDS011;9234;49.344;11.120;2022-12-24T11:14:41;12.40;;;3.30;;
18217;SDS011;9234;49.344;11.120;2022-12-24T11:17:15;8.02;;;3.05;;
18217;SDS011;9234;49.344;11.120;2022-12-24T11:19:50;10.13;;;3.33;;
18217;SDS011;9234;49.344;11.120;2022-12-24T11:22:20;13.70;;;2.75;;
18217;SDS011;9234;49.344;11.120;2022-12-24T11:24:56;12.48;;;3.75;;
18217;SDS011;9234;49.344;11.120;2022-12-24T11:27:32;11.15;;;3.22;;
18217;SDS011;9234;49.344;11.120;2022-12-24T11:30:18;11.00;;;2.30;;
18217;SDS011;9234;49.344;11.120;2022-12-24T11:33:16;12.10;;;2.78;;
18217;SDS011;9234;49.344;11.120;2022-12-24T11:35:49;11.63;;;2.83;;
18217;SDS011;9234;49.344;11.120;2022-12-24T11:38:23;9.32;;;2.67;;
18217;SDS011;9234;49.344;11.120;2022-12-24T11:40:57;13.27;;;2.90;;
18217;SDS011;9234;49.344;11.120;2022-12-24T11:43:35;17.00;;;3.42;;
18217;SDS011;9234;49.344;11.120;2022-12-24T11:46:17;9.65;;;3.33;;
18217;SDS011;9234;49.344;11.120;2022-12-24T11:49:13;9.95;;;2.25;;
18217;SDS011;9234;49.344;11.120;2022-12-24T11:52:01;14.85;;;3.78;;
18217;SDS011;9234;49.344;11.120;2022-12-24T11:55:01;15.73;;;2.92;;
18217;SDS011;9234;49.344;11.120;2022-12-24T11:57:46;15.18;;;3.42;;
18217;SDS011;9234;49.344;11.120;2022-12-24T12:00:22;14.13;;;3.15;;
18217;SDS011;9234;49.344;11.120;2022-12-24T12:02:53;8.82;;;2.55;;
18217;SDS011;9234;49.344;11.120;2022-12-24T12:05:28;10.75;;;3.38;;
18217;SDS011;9234;49.344;11.120;2022-12-24T12:08:04;14.40;;;3.55;;
18217;SDS011;9234;49.344;11.120;2022-12-24T12:10:41;9.82;;;2.85;;
18217;SDS011;9234;49.344;11.120;2022-12-24T12:13:13;9.32;;;3.08;;
18217;SDS011;9234;49.344;11.120;2022-12-24T12:15:46;13.05;;;3.30;;
18217;SDS011;9234;49.344;11.120;2022-12-24T12:18:20;10.98;;;3.53;;
18217;SDS011;9234;49.344;11.120;2022-12-24T12:20:55;10.30;;;2.85;;
18217;SDS011;9234;49.344;11.120;2022-12-24T12:23:33;10.80;;;3.33;;
18217;SDS011;9234;49.344;11.120;2022-12-24T12:26:06;8.82;;;2.47;;
18217;SDS011;9234;49.344;11.120;2022-12-24T12:28:42;9.15;;;3.05;;
18217;SDS011;9234;49.344;11.120;2022-12-24T12:31:16;8.18;;;3.28;;
18217;SDS011;9234;49.344;11.120;2022-12-24T12:33:51;8.15;;;2.20;;
18217;SDS011;9234;49.344;11.120;2022-12-24T12:36:27;12.95;;;4.97;;
18217;SDS011;9234;49.344;11.120;2022-12-24T12:39:04;8.48;;;2.28;;
18217;SDS011;9234;49.344;11.120;2022-12-24T12:41:37;9.18;;;3.00;;
18217;SDS011;9234;49.344;11.120;2022-12-24T12:44:33;11.73;;;3.17;;
18217;SDS011;9234;49.344;11.120;2022-12-24T12:47:23;7.22;;;2.90;;
18217;SDS011;9234;49.344;11.120;2022-12-24T12:50:08;11.15;;;2.97;;
18217;SDS011;9234;49.344;11.120;2022-12-24T12:53:02;10.98;;;3.03;;
18217;SDS011;9234;49.344;11.120;2022-12-24T12:56:00;8.32;;;2.50;;
18217;SDS011;9234;49.344;11.120;2022-12-24T12:58:45;6.72;;;2.42;;
18217;SDS011;9234;49.344;11.120;2022-12-24T13:01:20;12.75;;;3.53;;
18217;SDS011;9234;49.344;11.120;2022-12-24T13:04:06;10.07;;;2.58;;
18217;SDS011;9234;49.344;11.120;2022-12-24T13:07:00;9.60;;;3.15;;
18217;SDS011;9234;49.344;11.120;2022-12-24T13:16:55;12.32;;;3.45;;
18217;SDS011;9234;49.344;11.120;2022-12-24T13:20:13;9.07;;;3.05;;
18217;SDS011;9234;49.344;11.120;2022-12-24T13:22:49;9.60;;;3.10;;
18217;SDS011;9234;49.344;11.120;2022-12-24T13:25:25;10.20;;;2.83;;
18217;SDS011;9234;49.344;11.120;2022-12-24T13:28:13;9.68;;;2.90;;
18217;SDS011;9234;49.344;11.120;2022-12-24T13:30:45;9.60;;;2.67;;
18217;SDS011;9234;49.344;11.120;2022-12-24T13:33:44;8.43;;;2.08;;
18217;SDS011;9234;49.344;11.120;2022-12-24T13:36:15;8.95;;;2.40;;
18217;SDS011;9234;49.344;11.120;2022-12-24T13:38:46;10.10;;;2.50;;
18217;SDS011;9234;49.344;11.120;2022-12-24T13:44:21;7.97;;;2.40;;
18217;SDS011;9234;49.344;11.120;2022-12-24T13:47:00;9.88;;;2.60;;
18217;SDS011;9234;49.344;11.120;2022-12-24T13:50:12;11.70;;;2.83;;
18217;SDS011;9234;49.344;11.120;2022-12-24T13:52:50;11.13;;;2.75;;
18217;SDS011;9234;49.344;11.120;2022-12-24T13:55:20;10.60;;;2.92;;
18217;SDS011;9234;49.344;11.120;2022-12-24T13:57:53;10.65;;;4.15;;
18217;SDS011;9234;49.344;11.120;2022-12-24T14:00:30;10.65;;;2.95;;
18217;SDS011;9234;49.344;11.120;2022-12-24T14:03:14;15.35;;;3.78;;
18217;SDS011;9234;49.344;11.120;2022-12-24T14:05:53;13.00;;;3.15;;
18217;SDS011;9234;49.344;11.120;2022-12-24T14:08:33;12.25;;;4.22;;
18217;SDS011;9234;49.344;11.120;2022-12-24T14:11:07;14.38;;;5.47;;
18217;SDS011;9234;49.344;11.120;2022-12-24T14:16:51;12.93;;;5.53;;
18217;SDS011;9234;49.344;11.120;2022-12-24T14:19:25;13.02;;;6.00;;
18217;SDS011;9234;49.344;11.120;2022-12-24T14:22:04;15.82;;;4.50;;
18217;SDS011;9234;49.344;11.120;2022-12-24T14:24:52;13.05;;;6.18;;
18217;SDS011;9234;49.344;11.120;2022-12-24T14:27:28;13.82;;;5.38;;
18217;SDS011;9234;49.344;11.120;2022-12-24T14:30:06;13.60;;;4.72;;
18217;SDS011;9234;49.344;11.120;2022-12-24T14:32:44;11.75;;;4.07;;
18217;SDS011;9234;49.344;11.120;2022-12-24T14:35:19;11.27;;;4.70;;
18217;SDS011;9234;49.344;11.120;2022-12-24T14:37:51;13.82;;;3.47;;
18217;SDS011;9234;49.344;11.120;2022-12-24T14:40:26;9.45;;;3.53;;
18217;SDS011;9234;49.344;11.120;2022-12-24T14:42:59;9.40;;;3.50;;
18217;SDS011;9234;49.344;11.120;2022-12-24T14:45:39;12.43;;;3.70;;
18217;SDS011;9234;49.344;11.120;2022-12-24T14:48:16;10.43;;;3.80;;
18217;SDS011;9234;49.344;11.120;2022-12-24T14:51:00;12.52;;;3.97;;
18217;SDS011;9234;49.344;11.120;2022-12-24T14:53:47;10.05;;;3.15;;
18217;SDS011;9234;49.344;11.120;2022-12-24T14:56:47;12.15;;;3.63;;
18217;SDS011;9234;49.344;11.120;2022-12-24T14:59:39;8.60;;;2.58;;
18217;SDS011;9234;49.344;11.120;2022-12-24T15:02:29;9.93;;;3.08;;
18217;SDS011;9234;49.344;11.120;2022-12-24T15:05:11;9.52;;;3.40;;
18217;SDS011;9234;49.344;11.120;2022-12-24T15:07:46;10.18;;;3.22;;
18217;SDS011;9234;49.344;11.120;2022-12-24T15:10:24;8.82;;;3.22;;
18217;SDS011;9234;49.344;11.120;2022-12-24T15:12:56;11.07;;;3.00;;
18217;SDS011;9234;49.344;11.120;2022-12-24T15:15:29;10.00;;;3.08;;
18217;SDS011;9234;49.344;11.120;2022-12-24T15:17:58;9.05;;;3.00;;
18217;SDS011;9234;49.344;11.120;2022-12-24T15:20:29;10.63;;;2.83;;
18217;SDS011;9234;49.344;11.120;2022-12-24T15:22:59;8.60;;;3.20;;
18217;SDS011;9234;49.344;11.120;2022-12-24T15:25:28;12.50;;;3.53;;
18217;SDS011;9234;49.344;11.120;2022-12-24T15:27:59;10.35;;;3.40;;
18217;SDS011;9234;49.344;11.120;2022-12-24T15:30:28;8.98;;;4.10;;
18217;SDS011;9234;49.344;11.120;2022-12-24T15:32:57;13.48;;;3.80;;
18217;SDS011;9234;49.344;11.120;2022-12-24T15:35:29;12.57;;;4.05;;